createdAt,value
2023-02-09T00:00:02.790Z,14.93
2023-02-09T00:02:29.810Z,16.30
2023-02-09T00:04:56.552Z,16.52
2023-02-09T00:07:23.295Z,18.42
2023-02-09T00:09:51.605Z,16.58
2023-02-09T00:12:38.057Z,15.45
2023-02-09T00:15:06.353Z,19.55
2023-02-09T00:17:37.273Z,14.80
2023-02-09T00:20:05.953Z,16.75
2023-02-09T00:22:33.394Z,16.52
2023-02-09T00:25:00.260Z,12.65
2023-02-09T00:27:27.153Z,16.40
2023-02-09T00:29:54.011Z,14.93
2023-02-09T00:32:20.792Z,15.85
2023-02-09T00:34:47.687Z,16.35
2023-02-09T00:37:14.467Z,16.80
2023-02-09T00:39:41.233Z,15.50
2023-02-09T00:42:08.091Z,15.48
2023-02-09T00:44:36.263Z,18.02
2023-02-09T00:47:03.870Z,13.95
2023-02-09T00:49:31.169Z,14.13
2023-02-09T00:51:58.043Z,16.17
2023-02-09T00:54:24.959Z,17.85
2023-02-09T00:56:51.795Z,15.40
2023-02-09T00:59:18.565Z,17.10
2023-02-09T01:01:45.352Z,15.60
2023-02-09T01:04:13.296Z,16.05
2023-02-09T01:06:40.199Z,14.88
2023-02-09T01:09:06.957Z,17.27
2023-02-09T01:11:33.881Z,14.38
2023-02-09T01:14:01.120Z,14.93
2023-02-09T01:16:31.566Z,14.00
2023-02-09T01:19:03.006Z,14.43
2023-02-09T01:21:30.501Z,14.77
2023-02-09T01:23:57.725Z,13.13
2023-02-09T01:26:24.595Z,13.98
2023-02-09T01:28:53.225Z,15.65
2023-02-09T01:31:28.910Z,18.55
2023-02-09T01:33:57.892Z,19.88
2023-02-09T01:36:25.277Z,18.98
2023-02-09T01:38:55.607Z,16.75
2023-02-09T01:41:23.002Z,18.48
2023-02-09T01:43:50.807Z,14.75
2023-02-09T01:46:17.675Z,16.98
2023-02-09T01:48:44.633Z,15.57
2023-02-09T01:51:11.910Z,14.25
2023-02-09T01:53:39.041Z,14.88
2023-02-09T01:56:10.649Z,14.15
2023-02-09T01:58:38.212Z,15.60
2023-02-09T02:01:05.235Z,17.50
2023-02-09T02:03:32.717Z,18.70
2023-02-09T02:06:06.620Z,15.57
2023-02-09T02:09:04.737Z,14.88
2023-02-09T02:11:32.980Z,14.35
2023-02-09T02:13:59.904Z,16.95
2023-02-09T02:16:29.730Z,13.95
2023-02-09T02:19:02.402Z,17.23
2023-02-09T02:22:05.753Z,16.20
2023-02-09T02:25:02.088Z,17.55
2023-02-09T02:27:39.348Z,17.92
2023-02-09T02:30:19.724Z,16.70
2023-02-09T02:32:58.342Z,15.60
2023-02-09T02:35:43.797Z,16.88
2023-02-09T02:38:31.504Z,15.05
2023-02-09T02:41:19.458Z,16.42
2023-02-09T02:44:06.649Z,21.77
2023-02-09T02:46:44.751Z,19.35
2023-02-09T02:49:33.057Z,16.17
2023-02-09T02:52:04.105Z,19.83
2023-02-09T02:54:47.638Z,17.73
2023-02-09T02:57:18.952Z,18.77
2023-02-09T02:59:54.377Z,18.83
2023-02-09T03:02:30.983Z,19.95
2023-02-09T03:05:01.608Z,18.30
2023-02-09T03:07:28.442Z,19.02
2023-02-09T03:09:57.362Z,21.48
2023-02-09T03:12:33.463Z,20.70
2023-02-09T03:15:11.974Z,18.90
2023-02-09T03:18:09.720Z,15.98
2023-02-09T03:20:47.102Z,17.50
2023-02-09T03:23:26.712Z,16.90
2023-02-09T03:25:56.470Z,15.80
2023-02-09T03:28:28.845Z,20.55
2023-02-09T03:30:57.644Z,15.32
2023-02-09T03:33:28.504Z,19.80
2023-02-09T03:35:57.443Z,21.35
2023-02-09T03:38:24.824Z,20.08
2023-02-09T03:40:51.617Z,18.20
2023-02-09T03:43:18.428Z,18.67
2023-02-09T03:45:45.360Z,15.20
2023-02-09T03:48:12.316Z,20.50
2023-02-09T03:50:39.092Z,19.98
2023-02-09T03:53:07.054Z,23.30
2023-02-09T03:55:34.062Z,17.27
2023-02-09T03:58:00.900Z,19.30
2023-02-09T04:00:27.882Z,19.85
2023-02-09T04:02:54.746Z,25.65
2023-02-09T04:05:22.852Z,20.15
2023-02-09T04:07:49.835Z,22.58
2023-02-09T04:10:16.665Z,19.48
2023-02-09T04:12:43.479Z,23.30
2023-02-09T04:15:10.428Z,24.20
2023-02-09T04:17:37.260Z,26.42
2023-02-09T04:20:04.320Z,21.40
2023-02-09T04:22:31.104Z,18.70
2023-02-09T04:24:57.934Z,20.33
2023-02-09T04:27:24.731Z,23.20
2023-02-09T04:29:51.514Z,22.10
2023-02-09T04:32:18.321Z,21.77
2023-02-09T04:34:45.227Z,22.50
2023-02-09T04:37:12.007Z,28.88
2023-02-09T04:39:38.810Z,21.20
2023-02-09T04:42:05.623Z,23.40
2023-02-09T04:44:32.412Z,20.52
2023-02-09T04:46:59.147Z,22.13
2023-02-09T04:49:25.918Z,20.77
2023-02-09T04:51:52.662Z,18.98
2023-02-09T04:54:19.410Z,23.17
2023-02-09T04:56:46.126Z,19.80
2023-02-09T04:59:31.423Z,26.27
2023-02-09T05:01:58.208Z,21.05
2023-02-09T05:04:25.009Z,25.73
2023-02-09T05:06:51.732Z,20.20
2023-02-09T05:09:18.523Z,31.65
2023-02-09T05:11:45.299Z,20.80
2023-02-09T05:14:12.067Z,26.30
2023-02-09T05:16:39.439Z,26.52
2023-02-09T05:19:06.465Z,24.13
2023-02-09T05:21:33.286Z,27.42
2023-02-09T05:24:00.134Z,30.33
2023-02-09T05:26:26.968Z,29.63
2023-02-09T05:28:53.756Z,28.02
2023-02-09T05:31:20.699Z,30.13
2023-02-09T05:33:47.534Z,28.45
2023-02-09T05:36:14.345Z,32.25
2023-02-09T05:38:41.408Z,30.48
2023-02-09T05:41:10.748Z,30.45
2023-02-09T05:43:38.067Z,28.08
2023-02-09T05:46:08.091Z,36.55
2023-02-09T05:48:35.257Z,33.30
2023-02-09T05:51:02.005Z,26.90
2023-02-09T05:53:28.780Z,33.03
2023-02-09T05:55:55.576Z,32.53
2023-02-09T05:58:22.364Z,33.05
2023-02-09T06:00:49.095Z,30.98
2023-02-09T06:03:16.028Z,35.45
2023-02-09T06:05:45.906Z,30.92
2023-02-09T06:08:12.701Z,30.60
2023-02-09T06:10:39.560Z,33.67
2023-02-09T06:13:06.506Z,32.25
2023-02-09T06:15:33.298Z,34.05
2023-02-09T06:18:00.085Z,34.22
2023-02-09T06:20:26.840Z,32.25
2023-02-09T06:22:53.621Z,37.88
2023-02-09T06:25:20.379Z,38.22
2023-02-09T06:27:47.211Z,30.88
2023-02-09T06:30:14.152Z,36.95
2023-02-09T06:32:40.983Z,37.10
2023-02-09T06:35:07.926Z,40.40
2023-02-09T06:37:34.707Z,41.95
2023-02-09T06:40:01.509Z,38.00
2023-02-09T06:42:43.992Z,41.45
2023-02-09T06:45:13.522Z,36.78
2023-02-09T06:47:45.067Z,34.05
2023-02-09T06:50:13.435Z,35.85
2023-02-09T06:52:40.482Z,35.10
2023-02-09T06:55:07.809Z,34.35
2023-02-09T06:57:35.216Z,37.80
2023-02-09T07:00:04.216Z,36.00
2023-02-09T07:02:31.105Z,44.22
2023-02-09T07:04:58.258Z,39.63
2023-02-09T07:07:25.614Z,37.63
2023-02-09T07:09:52.722Z,34.60
2023-02-09T07:12:19.488Z,35.47
2023-02-09T07:14:46.547Z,35.65
2023-02-09T07:17:13.336Z,31.55
2023-02-09T07:19:40.081Z,37.33
2023-02-09T07:22:06.946Z,41.88
2023-02-09T07:24:33.707Z,38.67
2023-02-09T07:27:00.488Z,43.92
2023-02-09T07:29:27.353Z,41.35
2023-02-09T07:31:54.232Z,37.10
2023-02-09T07:34:20.979Z,39.45
2023-02-09T07:36:47.845Z,40.83
2023-02-09T07:39:15.334Z,39.40
2023-02-09T07:41:42.411Z,34.22
2023-02-09T07:44:10.484Z,40.90
2023-02-09T07:46:37.618Z,39.30
2023-02-09T07:49:04.697Z,40.08
2023-02-09T07:51:33.450Z,42.40
2023-02-09T07:54:01.249Z,39.55
2023-02-09T07:56:28.788Z,33.03
2023-02-09T07:58:57.129Z,33.63
2023-02-09T08:01:25.287Z,35.10
2023-02-09T08:03:52.172Z,40.15
2023-02-09T08:06:41.895Z,36.83
2023-02-09T08:09:10.935Z,36.20
2023-02-09T08:11:46.496Z,36.65
2023-02-09T08:14:24.307Z,41.55
2023-02-09T08:17:14.178Z,39.03
2023-02-09T08:19:41.870Z,36.47
2023-02-09T08:22:08.655Z,39.72
2023-02-09T08:24:35.611Z,33.92
2023-02-09T08:27:02.463Z,38.13
2023-02-09T08:29:29.232Z,32.20
2023-02-09T08:31:55.982Z,32.97
2023-02-09T08:34:22.760Z,32.65
2023-02-09T08:36:50.165Z,36.25
2023-02-09T08:39:17.163Z,35.38
2023-02-09T08:41:46.110Z,37.88
2023-02-09T08:44:13.176Z,31.73
2023-02-09T08:46:40.121Z,27.73
2023-02-09T08:49:06.984Z,30.83
2023-02-09T08:51:33.773Z,28.67
2023-02-09T08:54:00.544Z,28.77
2023-02-09T08:56:27.375Z,28.40
2023-02-09T08:58:54.211Z,25.85
2023-02-09T09:01:21.033Z,27.35
2023-02-09T09:03:48.078Z,24.40
2023-02-09T09:06:14.886Z,24.08
2023-02-09T09:08:41.784Z,24.92
2023-02-09T09:11:13.013Z,25.33
2023-02-09T09:13:41.381Z,24.85
2023-02-09T09:16:13.825Z,22.08
2023-02-09T09:18:40.712Z,21.98
2023-02-09T09:21:07.466Z,21.38
2023-02-09T09:23:34.260Z,23.20
2023-02-09T09:26:04.606Z,20.77
2023-02-09T09:28:31.997Z,21.80
2023-02-09T09:31:02.139Z,19.88
2023-02-09T09:33:28.965Z,22.60
2023-02-09T09:35:59.089Z,26.05
2023-02-09T09:38:25.948Z,20.92
2023-02-09T09:40:53.201Z,23.10
2023-02-09T09:43:35.086Z,20.15
2023-02-09T09:46:03.626Z,17.58
2023-02-09T09:48:46.033Z,21.15
2023-02-09T09:54:01.813Z,20.88
2023-02-09T09:56:31.385Z,17.35
2023-02-09T09:58:59.768Z,22.00
2023-02-09T10:01:30.482Z,19.45
2023-02-09T10:04:00.930Z,19.50
2023-02-09T10:06:32.685Z,23.42
2023-02-09T10:09:26.092Z,18.45
2023-02-09T10:12:16.583Z,20.88
2023-02-09T10:14:43.389Z,20.48
2023-02-09T10:17:10.665Z,22.02
2023-02-09T10:19:37.495Z,21.33
2023-02-09T10:22:05.344Z,20.23
2023-02-09T10:24:34.176Z,20.73
2023-02-09T10:27:24.425Z,17.98
2023-02-09T10:29:51.264Z,21.58
2023-02-09T10:32:38.807Z,20.67
2023-02-09T10:35:27.344Z,21.77
2023-02-09T10:38:02.011Z,20.02
2023-02-09T10:40:32.658Z,19.20
2023-02-09T10:43:07.047Z,19.17
2023-02-09T10:45:46.222Z,16.33
2023-02-09T10:48:13.144Z,17.67
2023-02-09T10:50:58.346Z,20.23
2023-02-09T10:53:30.217Z,21.40
2023-02-09T10:56:35.216Z,16.98
2023-02-09T10:59:19.932Z,16.48
2023-02-09T11:02:02.398Z,19.38
2023-02-09T11:04:41.044Z,18.27
2023-02-09T11:07:14.897Z,18.67
2023-02-09T11:09:51.906Z,20.33
2023-02-09T11:12:22.805Z,23.17
2023-02-09T11:15:12.581Z,26.70
2023-02-09T11:17:45.671Z,23.67
2023-02-09T11:20:36.487Z,21.55
2023-02-09T11:23:13.915Z,23.50
2023-02-09T11:25:49.721Z,22.40
2023-02-09T11:29:05.892Z,28.42
2023-02-09T11:32:03.271Z,21.45
2023-02-09T11:34:44.642Z,36.58
2023-02-09T11:37:30.368Z,32.25
2023-02-09T11:40:22.899Z,26.08
2023-02-09T11:45:47.002Z,24.77
2023-02-09T11:48:40.976Z,23.70
2023-02-09T11:51:16.602Z,26.58
2023-02-09T11:53:59.072Z,21.73
2023-02-09T11:56:27.739Z,26.58
2023-02-09T11:58:57.318Z,20.60
2023-02-09T12:01:35.749Z,27.10
2023-02-09T12:04:40.237Z,26.13
2023-02-09T12:07:33.314Z,26.38
2023-02-09T12:10:25.152Z,25.13
2023-02-09T12:13:02.875Z,23.60
2023-02-09T12:15:39.354Z,23.13
2023-02-09T12:18:12.489Z,20.73
2023-02-09T12:20:52.945Z,21.55
2023-02-09T12:23:34.817Z,22.60
2023-02-09T12:26:16.916Z,19.88
2023-02-09T12:29:03.437Z,20.05
2023-02-09T12:31:51.277Z,24.50
2023-02-09T12:34:43.097Z,23.65
2023-02-09T12:37:16.974Z,20.75
2023-02-09T12:40:11.569Z,22.35
2023-02-09T12:42:42.563Z,21.02
2023-02-09T12:45:31.370Z,21.52
2023-02-09T12:48:01.106Z,24.77
2023-02-09T12:50:53.048Z,20.15
2023-02-09T12:53:22.936Z,22.65
2023-02-09T12:56:25.067Z,20.20
2023-02-09T12:58:51.765Z,20.85
2023-02-09T13:01:18.727Z,20.60
2023-02-09T13:04:03.671Z,20.35
2023-02-09T13:06:36.930Z,22.80
2023-02-09T13:09:09.244Z,23.60
2023-02-09T13:11:50.980Z,21.05
2023-02-09T13:14:19.884Z,16.98
2023-02-09T13:17:15.841Z,23.80
2023-02-09T13:20:17.710Z,22.60
2023-02-09T13:22:57.693Z,23.03
2023-02-09T13:25:33.469Z,19.27
2023-02-09T13:28:22.711Z,23.13
2023-02-09T13:30:49.806Z,20.40
2023-02-09T13:33:31.644Z,22.88
2023-02-09T13:36:25.055Z,21.20
2023-02-09T13:38:52.712Z,23.08
2023-02-09T13:41:27.249Z,24.42
2023-02-09T13:43:54.037Z,21.65
2023-02-09T13:46:28.489Z,21.45
2023-02-09T13:49:09.163Z,26.45
2023-02-09T13:51:35.909Z,24.13
2023-02-09T13:54:03.511Z,20.75
2023-02-09T13:56:32.432Z,21.35
2023-02-09T13:59:00.333Z,22.52
2023-02-09T14:01:35.774Z,20.60
2023-02-09T14:04:15.492Z,25.88
2023-02-09T14:06:47.671Z,21.08
2023-02-09T14:11:51.720Z,18.85
2023-02-09T14:14:53.628Z,20.40
2023-02-09T14:17:25.884Z,20.38
2023-02-09T14:19:55.009Z,23.20
2023-02-09T14:22:37.540Z,23.02
2023-02-09T14:25:13.498Z,23.05
2023-02-09T14:27:45.592Z,21.55
2023-02-09T14:30:18.806Z,22.02
2023-02-09T14:32:48.357Z,21.50
2023-02-09T14:35:29.062Z,25.95
2023-02-09T14:37:59.578Z,22.95
2023-02-09T14:40:30.935Z,23.13
2023-02-09T14:43:03.744Z,20.00
2023-02-09T14:45:43.540Z,23.48
2023-02-09T14:48:19.141Z,25.33
2023-02-09T14:50:47.251Z,21.05
2023-02-09T14:53:15.916Z,21.35
2023-02-09T14:55:44.488Z,22.95
2023-02-09T14:58:12.826Z,24.00
2023-02-09T15:00:39.570Z,28.17
2023-02-09T15:03:06.366Z,23.88
2023-02-09T15:05:33.211Z,20.65
2023-02-09T15:08:05.748Z,25.17
2023-02-09T15:10:38.722Z,23.35
2023-02-09T15:13:06.010Z,21.92
2023-02-09T15:15:37.501Z,21.90
2023-02-09T15:18:04.538Z,23.70
2023-02-09T15:20:32.461Z,22.10
2023-02-09T15:23:00.784Z,26.98
2023-02-09T15:25:29.334Z,25.48
2023-02-09T15:28:00.659Z,29.35
2023-02-09T15:30:34.314Z,24.40
2023-02-09T15:33:02.084Z,26.60
2023-02-09T15:35:29.816Z,27.30
2023-02-09T15:37:59.732Z,27.60
2023-02-09T15:40:47.053Z,29.05
2023-02-09T15:43:38.772Z,24.67
2023-02-09T15:46:09.436Z,29.42
2023-02-09T15:48:36.979Z,29.65
2023-02-09T15:51:04.061Z,31.27
2023-02-09T15:53:32.069Z,28.70
2023-02-09T15:56:02.532Z,31.23
2023-02-09T15:58:35.872Z,33.92
2023-02-09T16:01:03.742Z,33.47
2023-02-09T16:03:31.931Z,35.63
2023-02-09T16:06:12.934Z,34.80
2023-02-09T16:08:39.796Z,34.00
2023-02-09T16:11:12.027Z,33.38
2023-02-09T16:16:16.578Z,31.98
2023-02-09T16:18:44.252Z,32.20
2023-02-09T16:21:23.872Z,35.47
2023-02-09T16:23:52.521Z,36.53
2023-02-09T16:26:19.932Z,33.35
2023-02-09T16:28:51.703Z,34.35
2023-02-09T16:31:19.313Z,33.47
2023-02-09T16:33:47.017Z,35.45
2023-02-09T16:36:16.191Z,39.60
2023-02-09T16:38:43.664Z,35.22
2023-02-09T16:41:34.483Z,37.70
2023-02-09T16:44:02.616Z,32.25
2023-02-09T16:46:31.518Z,35.20
2023-02-09T16:49:00.915Z,35.83
2023-02-09T16:51:27.810Z,36.17
2023-02-09T16:53:55.193Z,38.50
2023-02-09T16:56:22.067Z,45.20
2023-02-09T16:58:49.171Z,39.47
2023-02-09T17:01:19.140Z,43.70
2023-02-09T17:03:50.318Z,43.67
2023-02-09T17:06:20.272Z,48.13
2023-02-09T17:08:47.906Z,43.40
2023-02-09T17:11:23.002Z,46.33
2023-02-09T17:13:50.114Z,45.40
2023-02-09T17:16:19.091Z,48.08
2023-02-09T17:18:49.150Z,43.00
2023-02-09T17:21:20.613Z,48.72
2023-02-09T17:23:47.444Z,53.83
2023-02-09T17:26:14.503Z,50.63
2023-02-09T17:28:43.133Z,53.53
2023-02-09T17:31:26.791Z,50.35
2023-02-09T17:33:59.615Z,53.60
2023-02-09T17:36:28.844Z,50.05
2023-02-09T17:39:00.515Z,53.67
2023-02-09T17:41:43.185Z,47.67
2023-02-09T17:44:35.412Z,48.10
2023-02-09T17:49:30.477Z,48.05
2023-02-09T17:51:57.304Z,55.08
2023-02-09T17:54:24.061Z,53.22
2023-02-09T17:56:50.881Z,56.15
2023-02-09T17:59:20.397Z,51.13
2023-02-09T18:01:50.177Z,53.60
2023-02-09T18:04:23.358Z,54.33
2023-02-09T18:06:50.205Z,56.88
2023-02-09T18:09:17.181Z,52.83
2023-02-09T18:11:52.520Z,59.50
2023-02-09T18:14:20.903Z,65.25
2023-02-09T18:16:48.461Z,60.20
2023-02-09T18:19:16.110Z,60.13
2023-02-09T18:21:52.848Z,56.97
2023-02-09T18:24:21.700Z,63.22
2023-02-09T18:26:50.030Z,57.80
2023-02-09T18:29:17.997Z,67.72
2023-02-09T18:31:44.877Z,62.67
2023-02-09T18:34:11.651Z,60.83
2023-02-09T18:36:38.477Z,60.50
2023-02-09T18:39:05.228Z,60.63
2023-02-09T18:41:32.071Z,58.25
2023-02-09T18:43:59.001Z,52.47
2023-02-09T18:46:27.162Z,55.90
2023-02-09T18:48:54.905Z,54.72
2023-02-09T18:51:22.053Z,55.75
2023-02-09T18:53:50.314Z,63.25
2023-02-09T18:56:22.335Z,59.42
2023-02-09T18:58:52.859Z,59.70
2023-02-09T19:01:22.060Z,59.08
2023-02-09T19:03:53.295Z,54.15
2023-02-09T19:06:21.387Z,41.47
2023-02-09T19:08:50.433Z,53.05
2023-02-09T19:11:20.799Z,54.50
2023-02-09T19:14:07.910Z,60.72
2023-02-09T19:16:38.176Z,66.32
2023-02-09T19:19:05.408Z,60.40
2023-02-09T19:21:32.554Z,53.72
2023-02-09T19:23:59.341Z,53.05
2023-02-09T19:26:26.175Z,52.28
2023-02-09T19:28:53.120Z,50.92
2023-02-09T19:31:19.940Z,50.90
2023-02-09T19:33:46.784Z,50.35
2023-02-09T19:36:13.556Z,52.67
2023-02-09T19:38:40.451Z,50.28
2023-02-09T19:41:12.340Z,51.80
2023-02-09T19:43:40.614Z,55.70
2023-02-09T19:46:10.453Z,48.08
2023-02-09T19:48:41.148Z,46.60
2023-02-09T19:51:08.635Z,50.03
2023-02-09T19:53:35.637Z,52.83
2023-02-09T19:56:02.718Z,49.13
2023-02-09T19:58:29.765Z,54.10
2023-02-09T20:00:56.681Z,49.60
2023-02-09T20:03:24.306Z,51.25
2023-02-09T20:05:51.546Z,48.15
2023-02-09T20:08:19.640Z,49.03
2023-02-09T20:10:47.158Z,52.10
2023-02-09T20:13:15.761Z,51.83
2023-02-09T20:15:43.922Z,45.38
2023-02-09T20:18:13.403Z,49.60
2023-02-09T20:20:43.289Z,49.83
2023-02-09T20:23:10.594Z,50.05
2023-02-09T20:25:40.659Z,52.20
2023-02-09T20:28:07.596Z,50.75
2023-02-09T20:30:34.613Z,57.00
2023-02-09T20:33:01.500Z,54.50
2023-02-09T20:35:28.348Z,58.90
2023-02-09T20:37:55.165Z,55.00
2023-02-09T20:40:22.753Z,54.50
2023-02-09T20:43:08.154Z,55.60
2023-02-09T20:45:53.531Z,52.85
2023-02-09T20:48:20.444Z,55.35
2023-02-09T20:50:47.609Z,52.15
2023-02-09T20:53:14.569Z,53.45
2023-02-09T20:55:42.677Z,53.33
2023-02-09T20:58:11.794Z,54.25
2023-02-09T21:00:39.089Z,53.88
2023-02-09T21:03:07.384Z,61.72
2023-02-09T21:05:35.326Z,51.00
2023-02-09T21:08:04.478Z,58.60
2023-02-09T21:10:35.823Z,61.15
2023-02-09T21:13:04.056Z,58.92
2023-02-09T21:15:30.870Z,54.30
2023-02-09T21:17:57.778Z,63.85
2023-02-09T21:20:24.803Z,56.97
2023-02-09T21:22:51.697Z,55.13
2023-02-09T21:25:19.388Z,51.95
2023-02-09T21:27:46.234Z,55.35
2023-02-09T21:30:13.731Z,53.17
2023-02-09T21:32:40.489Z,53.58
2023-02-09T21:35:10.281Z,58.80
2023-02-09T21:37:38.898Z,61.70
2023-02-09T21:40:06.716Z,63.58
2023-02-09T21:42:35.570Z,64.88
2023-02-09T21:45:03.188Z,68.82
2023-02-09T21:47:33.080Z,71.28
2023-02-09T21:50:00.312Z,70.40
2023-02-09T21:52:27.914Z,66.50
2023-02-09T21:54:54.734Z,65.43
2023-02-09T21:57:22.737Z,64.65
2023-02-09T21:59:49.676Z,72.32
2023-02-09T22:02:18.095Z,68.65
2023-02-09T22:04:46.608Z,66.45
2023-02-09T22:07:14.579Z,67.50
2023-02-09T22:09:41.540Z,66.45
2023-02-09T22:12:08.683Z,62.38
2023-02-09T22:14:35.665Z,64.72
2023-02-09T22:17:02.576Z,64.88
2023-02-09T22:19:29.414Z,65.97
2023-02-09T22:22:00.353Z,61.58
2023-02-09T22:24:27.548Z,66.75
2023-02-09T22:26:54.378Z,59.42
2023-02-09T22:29:21.207Z,67.55
2023-02-09T22:31:48.173Z,53.83
2023-02-09T22:34:15.551Z,65.28
2023-02-09T22:36:42.319Z,68.28
2023-02-09T22:39:09.372Z,61.38
2023-02-09T22:41:36.254Z,58.00
2023-02-09T22:44:05.411Z,57.40
2023-02-09T22:46:35.462Z,59.80
2023-02-09T22:49:07.522Z,56.42
2023-02-09T22:51:36.143Z,57.05
2023-02-09T22:54:04.607Z,62.50
2023-02-09T22:56:32.397Z,56.53
2023-02-09T22:59:00.678Z,58.92
2023-02-09T23:01:29.267Z,52.38
2023-02-09T23:03:56.817Z,60.20
2023-02-09T23:06:27.014Z,60.40
2023-02-09T23:08:59.440Z,59.33
2023-02-09T23:11:27.547Z,56.08
2023-02-09T23:14:08.596Z,58.10
2023-02-09T23:16:36.689Z,57.72
2023-02-09T23:19:06.918Z,63.53
2023-02-09T23:21:44.982Z,61.45
2023-02-09T23:24:13.458Z,60.88
2023-02-09T23:26:40.522Z,57.53
2023-02-09T23:29:09.535Z,52.17
2023-02-09T23:31:36.964Z,52.65
2023-02-09T23:34:03.900Z,54.50
2023-02-09T23:36:32.685Z,50.35
2023-02-09T23:39:05.459Z,52.30
2023-02-09T23:41:32.525Z,50.90
2023-02-09T23:43:59.779Z,49.28
2023-02-09T23:46:28.845Z,61.47
2023-02-09T23:48:56.394Z,52.00
2023-02-09T23:51:31.888Z,51.63
2023-02-09T23:54:01.176Z,47.47
2023-02-09T23:56:29.901Z,46.80
2023-02-09T23:58:56.714Z,44.42
